Time;durP1;ratioP1;P1;durP2;ratioP2;P2;SDS_P1;SDS_P2;PMS_P1;PMS_P2;Temp;Humidity;BMP_temperature;BMP_pressure;BME280_temperature;BME280_humidity;BME280_pressure;Samples;Min_cycle;Max_cycle;Signal;HPM_P1;HPM_P2
2023/01/17 00:01:58;;;;;;;2.20;0.40;;;;;;;3.86;74.07;99398.56;4938903;28;20539;-72
2023/01/17 00:09:58;;;;;;;7.43;0.60;;;;;;;3.84;73.78;99388.22;4939825;28;20566;-72
2023/01/17 00:12:27;;;;;;;4.63;0.40;;;;;;;3.82;74.03;99384.84;4941966;28;20055;-72
2023/01/17 00:14:55;;;;;;;3.35;0.68;;;;;;;3.84;73.82;99395.97;4943023;28;20043;-72
2023/01/17 00:17:22;;;;;;;6.65;0.73;;;;;;;3.83;73.70;99389.97;4939402;28;20483;-72
2023/01/17 01:34:43;;;;;;;7.95;0.75;;;;;;;3.82;74.17;99374.50;4941943;28;20062;-72
2023/01/17 01:37:09;;;;;;;5.35;1.02;;;;;;;3.83;74.66;99371.88;4945147;28;20504;-72
2023/01/17 01:39:36;;;;;;;5.22;0.50;;;;;;;3.85;74.58;99368.44;4942679;28;20445;-72
2023/01/17 01:42:03;;;;;;;5.82;0.70;;;;;;;3.86;74.54;99360.66;4943479;28;20074;-72
2023/01/17 01:44:47;;;;;;;4.38;0.70;;;;;;;3.88;74.63;99355.47;4943156;28;20047;-72
2023/01/17 01:47:19;;;;;;;4.38;0.60;;;;;;;3.88;74.51;99352.91;4941518;28;20043;-72
2023/01/17 01:49:47;;;;;;;6.60;0.93;;;;;;;3.89;74.24;99341.69;4941906;28;20047;-72
2023/01/17 01:52:16;;;;;;;6.93;0.60;;;;;;;3.90;74.26;99339.09;4941567;28;20504;-72
2023/01/17 01:54:48;;;;;;;3.53;0.40;;;;;;;3.91;74.23;99343.38;4946856;28;20047;-72
2023/01/17 01:57:18;;;;;;;3.15;0.60;;;;;;;3.91;74.50;99335.63;4943403;28;20050;-72
2023/01/17 01:59:54;;;;;;;4.38;1.23;;;;;;;3.92;74.38;99339.06;4939845;28;20051;-72
2023/01/17 02:02:21;;;;;;;4.20;0.77;;;;;;;3.93;74.52;99335.59;4943033;29;20069;-72
2023/01/17 02:04:49;;;;;;;3.92;0.40;;;;;;;3.91;74.38;99327.03;4938789;28;20063;-72
2023/01/17 02:07:22;;;;;;;1.48;0.70;;;;;;;3.93;74.30;99331.28;4940731;28;20051;-72
2023/01/17 02:09:50;;;;;;;6.95;0.80;;;;;;;3.83;74.43;99311.63;4943951;28;20416;-72
2023/01/17 02:12:18;;;;;;;1.60;0.55;;;;;;;3.96;74.19;99330.41;4944615;28;20139;-72
2023/01/17 02:14:46;;;;;;;6.60;0.60;;;;;;;3.95;74.49;99323.50;4942177;28;20051;-72
2023/01/17 02:17:24;;;;;;;1.55;0.57;;;;;;;3.97;74.43;99325.19;4943390;29;20058;-72
2023/01/17 02:20:21;;;;;;;7.63;0.95;;;;;;;3.98;74.21;99326.88;4943890;29;20067;-72
2023/01/17 02:23:43;;;;;;;5.35;0.70;;;;;;;3.94;74.11;99316.63;4940835;28;20056;-72
2023/01/17 02:26:45;;;;;;;4.90;1.00;;;;;;;3.96;74.05;99315.75;4940281;28;20051;-72
2023/01/17 02:29:50;;;;;;;4.25;1.30;;;;;;;3.95;74.09;99314.00;4943697;28;20162;-72
2023/01/17 02:32:25;;;;;;;4.63;0.75;;;;;;;3.93;74.28;99314.94;4940554;28;20488;-72
2023/01/17 02:35:00;;;;;;;5.68;0.77;;;;;;;3.93;73.96;99309.78;4944094;28;20128;-72
2023/01/17 02:37:34;;;;;;;4.57;0.80;;;;;;;3.92;74.02;99308.06;4937792;28;20052;-72
2023/01/17 02:40:08;;;;;;;1.60;0.50;;;;;;;3.89;74.21;99308.94;4941806;28;20055;-72
2023/01/17 02:42:39;;;;;;;5.07;0.68;;;;;;;3.89;74.03;99300.34;4940538;28;20523;-72
2023/01/17 02:45:07;;;;;;;4.00;0.50;;;;;;;3.88;74.00;99306.41;4942747;28;20063;-72
2023/01/17 02:47:36;;;;;;;2.67;0.80;;;;;;;3.86;74.03;99308.16;4939413;28;20130;-72
2023/01/17 02:50:08;;;;;;;4.03;0.77;;;;;;;3.85;74.35;99298.69;4936696;28;20389;-72
2023/01/17 02:52:49;;;;;;;3.33;1.10;;;;;;;3.85;74.12;99289.22;4941363;28;20085;-71
2023/01/17 02:55:27;;;;;;;7.55;2.08;;;;;;;3.74;73.97;99279.03;4947220;29;20054;-72
2023/01/17 02:58:23;;;;;;;5.60;0.60;;;;;;;3.83;74.41;99293.53;4939284;28;20047;-72
2023/01/17 03:01:03;;;;;;;4.85;0.77;;;;;;;3.81;74.54;99291.00;4940251;28;20082;-72
2023/01/17 03:03:39;;;;;;;4.22;0.52;;;;;;;3.81;74.65;99293.59;4940039;28;20078;-72
2023/01/17 03:06:11;;;;;;;5.47;0.95;;;;;;;3.80;74.45;99288.44;4938292;29;21332;-72
2023/01/17 03:08:41;;;;;;;9.60;1.35;;;;;;;3.79;74.33;99300.50;4940914;28;20051;-72
2023/01/17 03:11:09;;;;;;;4.03;0.50;;;;;;;3.79;74.53;99297.06;4939839;28;20043;-72
2023/01/17 03:13:36;;;;;;;3.92;0.73;;;;;;;3.79;74.71;99289.31;4940401;28;20496;-72
2023/01/17 03:16:08;;;;;;;5.28;0.75;;;;;;;3.79;74.45;99292.75;4943383;28;20055;-73
2023/01/17 03:18:36;;;;;;;2.72;0.98;;;;;;;3.81;74.88;99303.03;4942930;28;20051;-72
2023/01/17 03:21:03;;;;;;;2.58;0.80;;;;;;;3.80;74.57;99303.91;4937681;29;20044;-72
2023/01/17 03:23:29;;;;;;;6.00;0.88;;;;;;;3.81;74.54;99310.78;4941634;28;20438;-72
2023/01/17 03:25:56;;;;;;;6.47;1.33;;;;;;;3.81;74.42;99306.50;4942983;28;20055;-73
2023/01/17 03:28:23;;;;;;;7.18;1.45;;;;;;;3.79;74.51;99300.50;4941874;28;20050;-72
2023/01/17 03:30:50;;;;;;;8.07;1.90;;;;;;;3.80;74.62;99304.78;4941950;29;20060;-72
2023/01/17 03:33:17;;;;;;;3.53;1.38;;;;;;;3.83;74.63;99303.88;4941526;28;20048;-72
2023/01/17 03:35:46;;;;;;;7.47;1.10;;;;;;;3.83;74.76;99311.63;4939772;28;20079;-73
2023/01/17 03:38:13;;;;;;;11.55;1.50;;;;;;;3.83;74.46;99307.31;4942576;28;20408;-72
2023/01/17 03:40:40;;;;;;;10.25;1.40;;;;;;;3.82;74.96;99295.28;4945050;28;20055;-72
2023/01/17 03:43:07;;;;;;;2.22;0.93;;;;;;;3.76;74.57;99287.63;4941708;28;20047;-72
2023/01/17 03:45:34;;;;;;;4.78;1.88;;;;;;;3.83;74.40;99296.13;4939207;28;20055;-72
2023/01/17 03:48:01;;;;;;;7.25;1.40;;;;;;;3.83;74.71;99293.53;4938293;28;20048;-73
2023/01/17 03:50:27;;;;;;;7.35;1.00;;;;;;;3.82;74.60;99295.28;4948666;28;20047;-80
2023/01/17 03:52:56;;;;;;;7.03;1.85;;;;;;;3.84;74.50;99300.41;4945558;28;20088;-72
2023/01/17 03:55:22;;;;;;;6.38;1.15;;;;;;;3.82;74.52;99297.88;4940594;28;20051;-72
2023/01/17 03:57:49;;;;;;;5.07;0.90;;;;;;;3.82;73.92;99303.03;4942609;28;20590;-72
2023/01/17 04:00:17;;;;;;;5.30;1.02;;;;;;;3.81;74.29;99301.34;4939723;28;20047;-72
2023/01/17 04:02:43;;;;;;;4.00;0.95;;;;;;;3.80;73.70;99297.03;4939737;28;20047;-68
2023/01/17 04:05:10;;;;;;;6.57;1.27;;;;;;;3.75;73.62;99296.22;4941967;28;20453;-68
2023/01/17 04:07:37;;;;;;;3.28;0.65;;;;;;;3.80;73.87;99304.78;4935991;28;20063;-68
2023/01/17 04:10:07;;;;;;;1.10;0.47;;;;;;;3.80;74.03;99289.28;4939927;28;20047;-68
2023/01/17 04:12:35;;;;;;;2.88;0.70;;;;;;;3.81;73.79;99291.00;4941133;28;20058;-68
2023/01/17 04:15:01;;;;;;;1.58;1.08;;;;;;;3.81;73.57;99296.16;4938364;28;20062;-68
2023/01/17 04:17:28;;;;;;;2.25;0.60;;;;;;;3.81;73.73;99293.59;4937811;28;20520;-68
2023/01/17 04:19:55;;;;;;;1.58;0.43;;;;;;;3.82;73.78;99303.03;4942786;29;20070;-68
2023/01/17 04:22:22;;;;;;;5.43;0.95;;;;;;;3.82;73.22;99297.00;4941615;28;20047;-68
2023/01/17 04:24:49;;;;;;;2.25;0.73;;;;;;;3.81;73.15;99300.44;4941124;28;20089;-68
2023/01/17 04:27:17;;;;;;;3.08;0.70;;;;;;;3.79;73.37;99290.16;4938687;28;20047;-69
2023/01/17 04:29:44;;;;;;;6.97;1.23;;;;;;;3.82;73.07;99290.13;4940480;28;20075;-68
2023/01/17 04:32:11;;;;;;;2.65;0.77;;;;;;;3.82;73.33;99294.44;4942080;28;20048;-68
2023/01/17 04:34:37;;;;;;;2.92;1.27;;;;;;;3.82;73.08;99297.00;4940557;28;20685;-68
2023/01/17 04:37:04;;;;;;;6.03;0.75;;;;;;;3.81;73.37;99297.88;4939739;28;20051;-68
2023/01/17 04:39:31;;;;;;;2.63;0.70;;;;;;;3.80;73.47;99291.84;4940255;28;20048;-68
2023/01/17 04:41:58;;;;;;;3.65;0.70;;;;;;;3.82;72.92;99286.69;4939419;28;20050;-68
2023/01/17 04:44:26;;;;;;;2.13;0.55;;;;;;;3.83;73.33;99278.03;4939285;29;20062;-68
2023/01/17 04:46:53;;;;;;;4.57;0.90;;;;;;;3.81;73.14;99280.66;4934476;28;20058;-69
2023/01/17 04:49:20;;;;;;;3.85;0.60;;;;;;;3.82;73.31;99292.69;4936618;28;20475;-68
2023/01/17 04:51:47;;;;;;;4.18;0.70;;;;;;;3.82;72.62;99279.78;4940026;28;20420;-69
2023/01/17 04:54:14;;;;;;;3.22;0.75;;;;;;;3.83;72.79;99275.47;4941229;28;20063;-68
2023/01/17 04:56:41;;;;;;;2.78;0.38;;;;;;;3.81;73.24;99283.25;4941326;28;20058;-68
2023/01/17 04:59:07;;;;;;;3.33;0.93;;;;;;;3.81;72.87;99290.13;4939302;28;20047;-69
2023/01/17 05:01:36;;;;;;;2.42;0.70;;;;;;;3.70;72.76;99271.34;4938067;29;20062;-68
2023/01/17 05:04:03;;;;;;;1.55;0.40;;;;;;;3.79;72.73;99278.97;4927687;28;20090;-68
2023/01/17 05:06:29;;;;;;;2.22;0.50;;;;;;;3.78;72.70;99282.41;4934631;28;20424;-68
2023/01/17 05:08:56;;;;;;;1.20;0.40;;;;;;;3.77;72.61;99273.81;4937796;28;20065;-68
2023/01/17 05:11:23;;;;;;;2.50;0.70;;;;;;;3.79;72.78;99276.41;4940187;28;20075;-68
2023/01/17 05:13:50;;;;;;;1.88;0.63;;;;;;;3.74;73.04;99271.28;4938631;28;20066;-68
2023/01/17 05:16:19;;;;;;;3.83;0.93;;;;;;;3.79;72.84;99272.09;4934550;28;20480;-68
2023/01/17 05:18:50;;;;;;;3.05;0.63;;;;;;;3.78;72.84;99266.94;4937626;28;20048;-71
2023/01/17 05:21:17;;;;;;;2.38;0.80;;;;;;;3.77;72.47;99273.81;4935855;28;20073;-71
2023/01/17 05:23:44;;;;;;;2.75;0.50;;;;;;;3.77;72.86;99279.00;4943078;29;20073;-72
2023/01/17 05:26:10;;;;;;;2.85;1.48;;;;;;;3.77;72.53;99272.97;4940250;28;20488;-72
2023/01/17 05:28:37;;;;;;;4.57;0.63;;;;;;;3.76;72.96;99259.22;4938671;28;20062;-72
2023/01/17 05:31:04;;;;;;;3.00;0.50;;;;;;;3.77;72.61;99262.66;4937466;29;20471;-71
2023/01/17 05:33:31;;;;;;;3.13;1.17;;;;;;;3.75;72.83;99265.22;4940387;29;20415;-71
2023/01/17 05:35:59;;;;;;;5.35;0.80;;;;;;;3.74;72.70;99265.28;4935779;29;20054;-71
2023/01/17 05:38:26;;;;;;;3.78;0.90;;;;;;;3.76;72.57;99273.88;4938794;29;20051;-71
2023/01/17 05:40:53;;;;;;;0.90;0.25;;;;;;;3.70;73.07;99259.31;4937337;29;20043;-71
2023/01/17 05:43:20;;;;;;;6.72;1.88;;;;;;;3.75;72.78;99265.22;4934482;29;20073;-71
2023/01/17 05:45:49;;;;;;;1.92;0.63;;;;;;;3.74;72.08;99268.72;4940530;28;20514;-71
2023/01/17 05:48:15;;;;;;;3.10;0.60;;;;;;;3.74;72.66;99271.28;4937275;28;20055;-71
2023/01/17 05:50:42;;;;;;;5.40;1.05;;;;;;;3.73;72.51;99263.56;4942886;28;20098;-71
2023/01/17 05:53:12;;;;;;;2.25;0.73;;;;;;;3.72;72.14;99267.88;4943736;28;20044;-71
2023/01/17 05:55:40;;;;;;;11.98;1.25;;;;;;;3.71;72.16;99261.00;4941884;29;20058;-71
2023/01/17 05:58:14;;;;;;;4.93;0.63;;;;;;;3.72;72.27;99256.69;4944623;28;20049;-71
2023/01/17 06:00:41;;;;;;;2.72;0.77;;;;;;;3.71;72.15;99247.25;4940860;29;20043;-71
2023/01/17 06:03:08;;;;;;;6.18;0.73;;;;;;;3.67;72.60;99263.66;4940934;29;20402;-71
2023/01/17 06:05:35;;;;;;;3.67;0.80;;;;;;;3.69;72.33;99260.16;4940560;28;20054;-71
2023/01/17 06:08:02;;;;;;;3.65;0.60;;;;;;;3.70;72.33;99261.91;4942957;29;20428;-71
2023/01/17 06:10:30;;;;;;;2.05;0.70;;;;;;;3.69;72.82;99270.50;4940633;29;20054;-71
2023/01/17 06:13:02;;;;;;;5.78;0.90;;;;;;;3.70;72.50;99267.06;4942186;29;20047;-71
2023/01/17 06:15:29;;;;;;;5.00;2.25;;;;;;;3.70;72.71;99268.75;4941759;29;20051;-71
2023/01/17 06:17:56;;;;;;;3.30;0.70;;;;;;;3.70;72.68;99267.06;4942886;29;20110;-71
2023/01/17 06:20:23;;;;;;;1.50;0.60;;;;;;;3.69;72.43;99264.47;4942208;29;20518;-71
2023/01/17 06:22:50;;;;;;;2.22;0.70;;;;;;;3.68;72.71;99266.22;4942512;28;20799;-71
2023/01/17 06:25:17;;;;;;;3.72;1.05;;;;;;;3.66;72.56;99267.13;4942544;29;20062;-71
2023/01/17 06:27:45;;;;;;;6.13;1.00;;;;;;;3.67;72.98;99261.94;4939197;28;20051;-71
2023/01/17 06:30:12;;;;;;;1.60;0.57;;;;;;;3.66;72.55;99267.97;4942804;29;20053;-70
2023/01/17 06:32:39;;;;;;;1.55;1.05;;;;;;;3.66;73.00;99267.97;4939636;28;20048;-71
2023/01/17 06:35:07;;;;;;;6.63;1.20;;;;;;;3.65;72.75;99271.44;4939726;29;20047;-70
2023/01/17 06:37:33;;;;;;;7.07;1.90;;;;;;;3.65;73.04;99260.25;4944722;29;20045;-71
2023/01/17 06:40:00;;;;;;;7.38;0.77;;;;;;;3.65;73.15;99253.34;4940704;29;20047;-71
2023/01/17 06:42:27;;;;;;;3.58;1.35;;;;;;;3.66;73.08;99247.31;4941305;28;20504;-71
2023/01/17 06:44:55;;;;;;;2.85;1.33;;;;;;;3.64;72.74;99233.56;4941543;28;20065;-71
2023/01/17 06:47:22;;;;;;;3.15;0.98;;;;;;;3.64;72.80;99236.13;4939562;28;20053;-70
2023/01/17 06:49:49;;;;;;;9.73;1.35;;;;;;;3.65;72.71;99235.28;4942427;28;20734;-71
2023/01/17 06:52:16;;;;;;;4.32;1.10;;;;;;;3.67;72.77;99228.38;4942538;28;20046;-71
2023/01/17 06:54:43;;;;;;;4.20;0.95;;;;;;;3.67;73.09;99219.75;4940244;28;20035;-70
2023/01/17 06:57:10;;;;;;;2.40;0.88;;;;;;;3.69;73.14;99220.59;4941632;28;20081;-70
2023/01/17 06:59:37;;;;;;;5.63;0.73;;;;;;;3.70;73.19;99219.69;4941048;28;20725;-70
2023/01/17 07:02:05;;;;;;;2.35;1.00;;;;;;;3.71;73.06;99227.44;4942759;28;20054;-69
2023/01/17 07:04:34;;;;;;;4.53;1.23;;;;;;;3.70;72.94;99223.16;4941728;28;20464;-70
2023/01/17 07:07:01;;;;;;;3.85;0.73;;;;;;;3.70;73.26;99218.00;4942580;28;20070;-69
2023/01/17 07:09:28;;;;;;;5.38;1.83;;;;;;;3.68;72.76;99214.56;4938904;28;20054;-70
2023/01/17 07:11:59;;;;;;;8.40;1.50;;;;;;;3.70;72.66;99212.81;4946831;28;20047;-70
2023/01/17 07:14:25;;;;;;;4.25;1.50;;;;;;;3.72;72.70;99217.94;4941438;28;20138;-69
2023/01/17 07:16:52;;;;;;;4.32;1.38;;;;;;;3.71;73.02;99211.94;4943203;28;20055;-70
2023/01/17 07:19:20;;;;;;;4.80;1.77;;;;;;;3.71;72.82;99224.84;4943350;28;20519;-70
2023/01/17 07:21:50;;;;;;;5.20;1.10;;;;;;;3.71;73.13;99222.28;4940346;29;20048;-70
2023/01/17 07:24:17;;;;;;;7.22;1.17;;;;;;;3.72;73.21;99228.28;4943131;29;20527;-69
2023/01/17 07:26:44;;;;;;;7.13;1.50;;;;;;;3.65;72.71;99217.22;4940950;28;20044;-70
2023/01/17 07:29:11;;;;;;;3.10;1.70;;;;;;;3.69;72.63;99225.75;4942200;28;20050;-70
2023/01/17 07:31:39;;;;;;;4.90;0.82;;;;;;;3.68;73.10;99219.75;4941852;29;20488;-70
2023/01/17 07:34:06;;;;;;;6.05;0.50;;;;;;;3.69;72.67;99226.59;4940780;28;20489;-69
2023/01/17 07:36:34;;;;;;;3.75;1.10;;;;;;;3.69;72.63;99228.34;4935665;28;20622;-69
2023/01/17 07:39:01;;;;;;;4.47;1.15;;;;;;;3.67;72.61;99227.50;4938373;28;20047;-70
2023/01/17 07:41:27;;;;;;;2.60;1.02;;;;;;;3.65;72.99;99222.38;4942357;28;20066;-69
2023/01/17 07:43:54;;;;;;;2.30;0.80;;;;;;;3.65;72.75;99211.19;4939993;29;20139;-70
2023/01/17 07:46:22;;;;;;;5.28;1.23;;;;;;;3.65;72.59;99216.34;4938355;28;20416;-70
2023/01/17 07:48:49;;;;;;;2.38;1.10;;;;;;;3.57;72.64;99203.56;4941268;28;20051;-69
2023/01/17 07:51:16;;;;;;;2.40;0.60;;;;;;;3.62;72.71;99206.06;4938242;29;20058;-70
2023/01/17 07:53:44;;;;;;;8.68;1.35;;;;;;;3.60;72.22;99201.78;4942303;29;20420;-70
2023/01/17 07:56:11;;;;;;;6.35;0.77;;;;;;;3.59;72.27;99196.66;4941050;29;20047;-70
2023/01/17 07:58:38;;;;;;;9.65;3.22;;;;;;;3.58;72.32;99194.91;4938787;28;20416;-70
2023/01/17 08:01:07;;;;;;;1.35;1.25;;;;;;;3.55;71.82;99187.22;4939286;28;20043;-70
2023/01/17 08:03:38;;;;;;;6.65;1.05;;;;;;;3.57;72.10;99188.06;4941896;29;20055;-70
2023/01/17 08:06:06;;;;;;;3.25;1.10;;;;;;;3.54;71.88;99188.13;4941709;28;20150;-70
2023/01/17 08:08:33;;;;;;;2.45;0.70;;;;;;;3.54;72.34;99175.22;4942248;28;20051;-70
2023/01/17 08:11:01;;;;;;;3.53;1.00;;;;;;;3.53;72.37;99173.47;4940820;28;20416;-71
2023/01/17 08:13:28;;;;;;;2.13;1.17;;;;;;;3.52;71.87;99179.53;4939718;28;20074;-70
2023/01/17 08:15:55;;;;;;;7.03;1.30;;;;;;;3.52;72.36;99174.38;4944114;28;20077;-71
2023/01/17 08:18:22;;;;;;;2.90;0.80;;;;;;;3.53;72.34;99181.22;4941080;29;20500;-70
2023/01/17 08:20:49;;;;;;;3.53;0.85;;;;;;;3.52;72.16;99185.53;4940380;28;20047;-70
2023/01/17 08:23:16;;;;;;;3.42;0.80;;;;;;;3.53;72.40;99181.22;4943980;28;20044;-71
2023/01/17 08:25:42;;;;;;;5.43;0.82;;;;;;;3.51;72.20;99178.69;4939751;28;20524;-70
2023/01/17 08:28:11;;;;;;;2.33;1.38;;;;;;;3.52;72.17;99184.69;4941229;28;20047;-70
2023/01/17 08:30:38;;;;;;;2.28;0.93;;;;;;;3.51;72.32;99183.84;4939910;28;20515;-70
2023/01/17 08:33:05;;;;;;;5.05;1.90;;;;;;;3.51;72.00;99203.66;4942969;28;20062;-69
2023/01/17 08:35:32;;;;;;;6.70;1.02;;;;;;;3.49;71.98;99195.06;4941591;28;20464;-70
2023/01/17 08:38:03;;;;;;;5.25;0.90;;;;;;;3.49;71.73;99201.09;4940515;28;20062;-70
2023/01/17 08:40:31;;;;;;;4.10;1.08;;;;;;;3.47;71.93;99202.84;4942037;29;20052;-71
2023/01/17 08:42:59;;;;;;;5.00;1.10;;;;;;;3.45;71.52;99188.25;4936903;29;20119;-70
2023/01/17 08:45:28;;;;;;;7.80;1.05;;;;;;;3.47;71.74;99189.06;4939936;28;20067;-70
2023/01/17 08:47:57;;;;;;;2.95;1.38;;;;;;;3.46;72.10;99189.97;4942284;28;20047;-70
2023/01/17 08:50:24;;;;;;;3.45;0.85;;;;;;;3.41;71.74;99171.09;4940619;28;20044;-71
2023/01/17 08:52:57;;;;;;;6.05;1.10;;;;;;;3.44;72.16;99173.63;4937667;28;20106;-70
2023/01/17 08:55:24;;;;;;;5.47;1.30;;;;;;;3.43;72.14;99174.50;4938315;28;20062;-71
2023/01/17 08:57:51;;;;;;;4.15;1.63;;;;;;;3.46;72.00;99182.22;4938723;28;20043;-70
2023/01/17 09:00:19;;;;;;;3.55;1.10;;;;;;;3.47;71.84;99176.16;4935979;28;20544;-71
2023/01/17 09:02:47;;;;;;;7.95;1.88;;;;;;;3.47;72.29;99176.16;4938442;28;20131;-70
2023/01/17 09:05:14;;;;;;;4.50;2.45;;;;;;;3.47;72.27;99171.00;4939538;29;20047;-70
2023/01/17 09:07:41;;;;;;;5.95;2.40;;;;;;;3.45;72.56;99173.63;4940401;28;20044;-70
2023/01/17 09:10:09;;;;;;;9.25;2.17;;;;;;;3.44;71.93;99156.41;4939904;28;20050;-70
2023/01/17 09:12:36;;;;;;;6.13;2.58;;;;;;;3.45;72.38;99152.13;4942986;29;20058;-70
2023/01/17 09:15:03;;;;;;;8.05;2.83;;;;;;;3.44;72.59;99160.72;4941376;29;20058;-70
2023/01/17 09:17:30;;;;;;;3.25;1.33;;;;;;;3.45;72.22;99157.28;4938883;29;20051;-70
2023/01/17 09:19:59;;;;;;;8.35;2.53;;;;;;;3.43;71.90;99149.56;4941643;28;20056;-71
2023/01/17 09:22:26;;;;;;;5.30;1.77;;;;;;;3.44;72.02;99143.50;4940121;28;20055;-70
2023/01/17 09:24:53;;;;;;;9.18;2.03;;;;;;;3.43;71.98;99143.53;4944606;28;20051;-70
2023/01/17 09:27:20;;;;;;;6.50;2.83;;;;;;;3.41;72.40;99134.97;4943388;28;20051;-70
2023/01/17 09:29:47;;;;;;;6.15;2.35;;;;;;;3.41;72.17;99140.13;4947781;28;20091;-70
2023/01/17 09:32:15;;;;;;;9.23;3.13;;;;;;;3.42;71.95;99142.69;4944201;28;20142;-70
2023/01/17 09:34:42;;;;;;;6.07;2.40;;;;;;;3.41;71.82;99129.78;4942308;28;20055;-70
2023/01/17 09:37:10;;;;;;;5.05;1.20;;;;;;;3.41;71.94;99125.47;4943932;29;20078;-70
2023/01/17 09:39:37;;;;;;;4.07;1.92;;;;;;;3.41;71.90;99122.91;4946829;28;20119;-70
2023/01/17 09:42:18;;;;;;;5.10;2.35;;;;;;;3.43;71.99;99123.75;4942662;28;20054;-70
2023/01/17 09:44:47;;;;;;;7.30;2.03;;;;;;;3.43;71.67;99117.72;4942041;28;20060;-70
2023/01/17 09:47:24;;;;;;;3.97;2.08;;;;;;;3.42;71.98;99103.97;4943395;28;20055;-70
2023/01/17 09:49:55;;;;;;;7.07;2.30;;;;;;;3.41;71.44;99098.81;4941699;28;20058;-70
2023/01/17 09:52:24;;;;;;;7.95;2.55;;;;;;;3.41;71.68;99098.81;4943482;28;20557;-70
2023/01/17 09:54:51;;;;;;;5.65;2.17;;;;;;;3.41;71.84;99085.91;4943795;28;20052;-71
2023/01/17 09:57:39;;;;;;;6.10;2.00;;;;;;;3.42;71.85;99083.31;4944971;28;20054;-70
2023/01/17 10:00:17;;;;;;;4.95;1.80;;;;;;;3.41;72.03;99070.44;4943910;28;20051;-70
2023/01/17 10:03:00;;;;;;;3.42;2.15;;;;;;;3.42;72.20;99052.34;4943566;28;20040;-70
2023/01/17 10:05:40;;;;;;;5.57;1.30;;;;;;;3.40;72.21;99041.19;4945444;28;20070;-70
2023/01/17 10:08:23;;;;;;;7.80;1.58;;;;;;;3.41;72.05;99049.78;4946302;28;20645;-70
2023/01/17 10:10:58;;;;;;;4.53;1.67;;;;;;;3.41;71.80;99042.03;4946256;28;20058;-70
2023/01/17 10:13:38;;;;;;;3.67;1.40;;;;;;;3.30;71.91;99024.16;4942301;28;20424;-70
2023/01/17 10:16:16;;;;;;;4.70;1.40;;;;;;;3.40;72.04;99040.34;4942127;29;20051;-70
2023/01/17 10:18:59;;;;;;;6.65;1.63;;;;;;;3.41;72.19;99042.03;4940291;28;20051;-70
2023/01/17 10:21:39;;;;;;;3.53;0.93;;;;;;;3.41;71.60;99039.47;4945613;28;20059;-70
2023/01/17 10:24:32;;;;;;;1.65;0.80;;;;;;;3.34;72.08;99030.97;4944308;29;20059;-70
2023/01/17 10:27:02;;;;;;;4.53;1.10;;;;;;;3.41;72.05;99036.88;4945514;28;20057;-71
2023/01/17 10:29:34;;;;;;;5.38;1.35;;;;;;;3.42;71.91;99034.28;4942570;28;20078;-71
2023/01/17 10:32:02;;;;;;;4.03;1.95;;;;;;;3.42;72.05;99033.44;4939417;28;20052;-70
2023/01/17 10:34:36;;;;;;;4.95;1.35;;;;;;;3.37;72.22;99021.44;4943100;28;20047;-70
2023/01/17 10:37:15;;;;;;;5.53;1.10;;;;;;;3.42;71.89;99017.94;4937861;28;20058;-70
2023/01/17 10:39:47;;;;;;;7.32;1.20;;;;;;;3.41;72.29;99013.66;4943044;28;20055;-70
2023/01/17 10:42:21;;;;;;;2.05;1.08;;;;;;;3.41;72.11;99005.91;4944385;29;20039;-70
2023/01/17 10:44:55;;;;;;;4.22;1.30;;;;;;;3.41;72.32;99000.75;4939032;28;20059;-70
2023/01/17 10:47:24;;;;;;;2.17;1.05;;;;;;;3.39;72.72;98987.88;4939878;28;20058;-71
2023/01/17 10:49:53;;;;;;;4.60;1.52;;;;;;;3.40;72.34;98989.56;4942841;28;20051;-70
2023/01/17 10:52:32;;;;;;;4.30;1.05;;;;;;;3.39;72.24;98982.72;4944553;28;20423;-71
2023/01/17 10:55:15;;;;;;;6.18;1.45;;;;;;;3.38;72.77;98976.69;4942941;28;20473;-70
2023/01/17 10:57:44;;;;;;;6.32;1.30;;;;;;;3.38;72.86;98971.53;4942791;28;20055;-70
2023/01/17 11:00:32;;;;;;;4.97;1.50;;;;;;;3.37;72.66;98959.50;4944328;29;20039;-70
2023/01/17 11:03:00;;;;;;;7.30;1.75;;;;;;;3.37;72.66;98953.50;4943968;28;20055;-70
2023/01/17 11:05:28;;;;;;;5.40;1.33;;;;;;;3.37;72.81;98956.09;4942266;28;20052;-70
2023/01/17 11:08:00;;;;;;;5.80;2.10;;;;;;;3.37;72.82;98953.50;4941574;28;20077;-70
2023/01/17 11:10:39;;;;;;;5.40;1.30;;;;;;;3.37;72.62;98945.75;4943536;28;20047;-70
2023/01/17 11:13:21;;;;;;;3.58;0.77;;;;;;;3.35;72.74;98940.63;4944120;28;20803;-70
2023/01/17 11:15:49;;;;;;;6.13;1.50;;;;;;;3.35;72.76;98940.63;4938184;29;20557;-70
2023/01/17 11:18:18;;;;;;;5.80;1.67;;;;;;;3.34;73.11;98938.06;4944247;28;20087;-70
2023/01/17 11:20:46;;;;;;;5.85;2.05;;;;;;;3.32;73.37;98932.94;4941945;28;20048;-70
2023/01/17 11:23:17;;;;;;;4.30;1.45;;;;;;;3.31;73.03;98930.41;4941735;29;20051;-71
2023/01/17 11:25:54;;;;;;;6.53;0.98;;;;;;;3.28;73.00;98922.72;4942793;28;20077;-70
2023/01/17 11:28:24;;;;;;;3.28;0.88;;;;;;;3.26;73.54;98917.56;4942118;29;20488;-70
2023/01/17 11:30:54;;;;;;;7.82;1.27;;;;;;;3.23;73.39;98915.03;4944429;28;20043;-70
2023/01/17 11:33:46;;;;;;;1.90;0.90;;;;;;;3.20;73.07;98899.63;4940227;28;20131;-70
2023/01/17 11:36:18;;;;;;;5.30;0.93;;;;;;;3.17;73.41;98894.53;4927971;29;20086;-70
2023/01/17 11:38:55;;;;;;;3.42;0.55;;;;;;;3.15;73.64;98881.63;4942398;28;20047;-70
2023/01/17 11:41:24;;;;;;;4.22;0.80;;;;;;;3.12;72.81;98873.09;4945413;29;20381;-70
2023/01/17 11:43:53;;;;;;;2.08;0.50;;;;;;;3.10;73.52;98867.13;4940586;29;20073;-70
2023/01/17 11:46:21;;;;;;;2.58;1.20;;;;;;;3.08;73.17;98861.16;4939257;28;20103;-70
2023/01/17 11:48:51;;;;;;;2.50;0.60;;;;;;;3.04;73.18;98851.75;4942558;29;20051;-70
2023/01/17 11:51:25;;;;;;;1.65;0.65;;;;;;;3.02;73.77;98848.38;4937662;28;20695;-70
2023/01/17 11:53:55;;;;;;;2.08;0.60;;;;;;;2.97;73.43;98842.47;4937243;28;20074;-70
2023/01/17 11:56:32;;;;;;;3.45;0.70;;;;;;;2.97;73.31;98834.72;4940123;29;20079;-70
2023/01/17 11:59:24;;;;;;;1.33;0.80;;;;;;;2.92;73.79;98830.47;4938514;28;20059;-70
2023/01/17 12:02:04;;;;;;;2.17;0.50;;;;;;;2.91;73.94;98830.53;4941324;28;20062;-70
2023/01/17 12:04:38;;;;;;;2.53;0.70;;;;;;;2.89;74.02;98825.38;4937708;28;20045;-70
2023/01/17 12:07:22;;;;;;;1.20;0.65;;;;;;;2.74;74.04;98792.16;4939325;28;20059;-70
2023/01/17 12:10:02;;;;;;;1.13;0.40;;;;;;;2.86;73.78;98816.88;4944965;28;20053;-70
2023/01/17 12:15:39;;;;;;;1.58;0.60;;;;;;;2.84;73.78;98803.97;4939747;28;20203;-70
2023/01/17 12:18:33;;;;;;;0.95;0.50;;;;;;;2.83;74.34;98798.88;4938427;28;20039;-70
2023/01/17 12:21:16;;;;;;;1.85;0.40;;;;;;;2.80;74.09;98792.03;4939206;28;20432;-70
2023/01/17 12:24:03;;;;;;;0.90;0.50;;;;;;;2.77;74.50;98794.69;4944423;29;20094;-70
2023/01/17 12:26:36;;;;;;;0.98;0.73;;;;;;;2.78;74.67;98787.78;4941466;28;20059;-70
2023/01/17 12:29:30;;;;;;;1.10;0.95;;;;;;;2.77;74.65;98780.94;4941089;28;20048;-70
2023/01/17 12:32:07;;;;;;;2.60;0.95;;;;;;;2.75;74.08;98782.69;4932028;28;20070;-69
2023/01/17 12:34:39;;;;;;;1.40;0.40;;;;;;;2.74;74.82;98776.69;4916958;28;20079;-70
2023/01/17 12:37:19;;;;;;;1.70;0.43;;;;;;;2.75;74.39;98775.81;4935458;29;20058;-70
2023/01/17 12:39:54;;;;;;;2.90;0.60;;;;;;;2.73;74.78;98777.56;4942931;29;20040;-70
2023/01/17 12:42:25;;;;;;;0.43;0.30;;;;;;;2.72;74.44;98775.03;4940314;29;20488;-70
2023/01/17 12:45:02;;;;;;;2.50;0.30;;;;;;;2.72;75.01;98775.84;4940435;28;20050;-70
2023/01/17 12:47:33;;;;;;;0.65;0.20;;;;;;;2.71;74.36;98766.44;4939348;29;20064;-70
2023/01/17 12:50:07;;;;;;;1.25;0.30;;;;;;;2.69;74.44;98758.72;4942651;28;20133;-70
2023/01/17 12:52:45;;;;;;;1.03;0.23;;;;;;;2.67;74.62;98760.47;4937227;28;20058;-70
2023/01/17 12:55:17;;;;;;;1.35;0.20;;;;;;;2.67;74.74;98765.63;4942538;29;20046;-71
2023/01/17 12:57:49;;;;;;;0.38;0.20;;;;;;;2.67;74.91;98751.91;4941895;28;20055;-70
2023/01/17 13:00:21;;;;;;;1.75;0.20;;;;;;;2.64;74.76;98749.38;4945873;29;20062;-70
2023/01/17 13:02:54;;;;;;;0.52;0.30;;;;;;;2.65;75.27;98741.63;4945159;28;20044;-70
2023/01/17 13:05:27;;;;;;;1.50;0.20;;;;;;;2.66;75.24;98745.03;4946965;28;20054;-70
2023/01/17 13:08:01;;;;;;;0.40;0.22;;;;;;;2.64;74.70;98739.91;4944353;28;20063;-70
2023/01/17 13:10:34;;;;;;;0.65;0.30;;;;;;;2.63;75.05;98735.63;4942800;28;20055;-70
2023/01/17 13:13:12;;;;;;;0.50;0.15;;;;;;;2.62;74.98;98727.97;4943072;28;20050;-70
2023/01/17 13:15:42;;;;;;;0.95;0.20;;;;;;;2.60;74.80;98732.28;4943551;28;20048;-70
2023/01/17 13:18:14;;;;;;;1.42;0.47;;;;;;;2.59;74.76;98727.97;4943403;28;20054;-70
2023/01/17 13:21:03;;;;;;;1.67;0.20;;;;;;;2.58;75.38;98737.44;4941774;28;20419;-70
2023/01/17 13:23:38;;;;;;;0.90;0.15;;;;;;;2.57;75.06;98724.59;4943959;28;20051;-70